sensor_id;sensor_type;location;lat;lon;timestamp;pressure;altitude;pressure_sealevel;temperature;humidity
82035;BME280;71599;49.892;18.914;2023-08-17T00:03:05;98930.59;;;21.99;60.81
82035;BME280;71599;49.892;18.914;2023-08-17T00:08:07;98942.50;;;22.00;61.01
82035;BME280;71599;49.892;18.914;2023-08-17T00:13:08;98943.03;;;21.59;61.43
82035;BME280;71599;49.892;18.914;2023-08-17T00:18:09;98929.69;;;21.70;60.44
82035;BME280;71599;49.892;18.914;2023-08-17T00:23:11;98938.38;;;21.72;60.02
82035;BME280;71599;49.892;18.914;2023-08-17T00:28:12;98959.63;;;21.62;61.19
82035;BME280;71599;49.892;18.914;2023-08-17T00:33:13;98975.66;;;21.55;60.74
82035;BME280;71599;49.892;18.914;2023-08-17T00:38:16;98977.03;;;21.66;60.48
82035;BME280;71599;49.892;18.914;2023-08-17T00:43:17;98977.53;;;21.61;60.04
82035;BME280;71599;49.892;18.914;2023-08-17T00:48:18;98985.25;;;21.54;61.81
82035;BME280;71599;49.892;18.914;2023-08-17T00:53:20;98993.00;;;21.62;61.51
82035;BME280;71599;49.892;18.914;2023-08-17T00:58:22;98985.44;;;21.63;61.68
82035;BME280;71599;49.892;18.914;2023-08-17T01:03:24;98984.66;;;21.62;60.96
82035;BME280;71599;49.892;18.914;2023-08-17T01:08:26;98991.50;;;21.58;60.97
82035;BME280;71599;49.892;18.914;2023-08-17T01:13:35;98998.97;;;21.41;62.58
82035;BME280;71599;49.892;18.914;2023-08-17T01:18:40;98988.34;;;21.36;61.51
82035;BME280;71599;49.892;18.914;2023-08-17T01:23:44;98992.81;;;21.30;63.25
82035;BME280;71599;49.892;18.914;2023-08-17T01:28:46;98985.34;;;21.27;62.56
82035;BME280;71599;49.892;18.914;2023-08-17T01:33:50;98984.84;;;21.32;62.67
82035;BME280;71599;49.892;18.914;2023-08-17T01:38:56;98989.41;;;21.22;62.92
82035;BME280;71599;49.892;18.914;2023-08-17T01:43:58;99001.63;;;20.82;65.59
82035;BME280;71599;49.892;18.914;2023-08-17T01:49:00;99001.91;;;20.87;64.21
82035;BME280;71599;49.892;18.914;2023-08-17T01:54:02;99004.47;;;21.01;64.04
82035;BME280;71599;49.892;18.914;2023-08-17T01:59:04;99015.03;;;21.10;63.44
82035;BME280;71599;49.892;18.914;2023-08-17T02:04:05;99014.00;;;21.00;63.51
82035;BME280;71599;49.892;18.914;2023-08-17T02:09:08;99019.22;;;20.98;63.71
82035;BME280;71599;49.892;18.914;2023-08-17T02:14:09;99019.13;;;21.02;63.21
82035;BME280;71599;49.892;18.914;2023-08-17T02:19:10;99009.09;;;21.08;62.56
82035;BME280;71599;49.892;18.914;2023-08-17T02:24:12;99007.66;;;21.00;63.98
82035;BME280;71599;49.892;18.914;2023-08-17T02:29:13;99010.38;;;21.03;63.21
82035;BME280;71599;49.892;18.914;2023-08-17T02:34:14;99011.88;;;21.08;62.83
82035;BME280;71599;49.892;18.914;2023-08-17T02:39:17;98998.91;;;21.01;63.85
82035;BME280;71599;49.892;18.914;2023-08-17T02:44:18;99002.16;;;20.96;63.77
82035;BME280;71599;49.892;18.914;2023-08-17T02:49:19;98996.81;;;20.86;64.61
82035;BME280;71599;49.892;18.914;2023-08-17T02:54:21;98996.09;;;20.55;67.08
82035;BME280;71599;49.892;18.914;2023-08-17T02:59:22;98994.09;;;20.32;66.03
82035;BME280;71599;49.892;18.914;2023-08-17T03:04:23;98998.97;;;20.48;65.62
82035;BME280;71599;49.892;18.914;2023-08-17T03:09:25;98999.34;;;20.50;66.38
82035;BME280;71599;49.892;18.914;2023-08-17T03:14:26;98987.78;;;20.55;66.55
82035;BME280;71599;49.892;18.914;2023-08-17T03:19:27;98980.53;;;20.61;65.59
82035;BME280;71599;49.892;18.914;2023-08-17T03:24:30;98998.09;;;20.54;66.21
82035;BME280;71599;49.892;18.914;2023-08-17T03:29:31;99001.97;;;20.60;65.41
82035;BME280;71599;49.892;18.914;2023-08-17T03:34:32;99001.25;;;20.56;65.91
82035;BME280;71599;49.892;18.914;2023-08-17T03:39:34;99005.94;;;20.59;65.14
82035;BME280;71599;49.892;18.914;2023-08-17T03:44:35;99007.88;;;20.62;65.00
82035;BME280;71599;49.892;18.914;2023-08-17T03:49:36;99026.53;;;20.62;65.31
82035;BME280;71599;49.892;18.914;2023-08-17T03:54:38;99029.00;;;20.56;65.80
82035;BME280;71599;49.892;18.914;2023-08-17T03:59:41;99021.13;;;20.51;66.00
82035;BME280;71599;49.892;18.914;2023-08-17T04:04:42;99016.44;;;20.48;66.06
82035;BME280;71599;49.892;18.914;2023-08-17T04:09:45;99026.44;;;20.42;66.60
82035;BME280;71599;49.892;18.914;2023-08-17T04:14:46;99023.25;;;20.44;66.20
82035;BME280;71599;49.892;18.914;2023-08-17T04:19:46;99026.84;;;20.41;65.87
82035;BME280;71599;49.892;18.914;2023-08-17T04:24:49;99028.41;;;20.42;66.01
82035;BME280;71599;49.892;18.914;2023-08-17T04:29:50;99026.13;;;20.37;66.53
82035;BME280;71599;49.892;18.914;2023-08-17T04:34:51;99038.91;;;20.31;66.51
82035;BME280;71599;49.892;18.914;2023-08-17T04:39:54;99038.03;;;20.34;67.04
82035;BME280;71599;49.892;18.914;2023-08-17T04:44:54;99029.78;;;20.30;66.75
82035;BME280;71599;49.892;18.914;2023-08-17T04:49:55;99043.59;;;20.34;67.03
82035;BME280;71599;49.892;18.914;2023-08-17T04:54:58;99052.50;;;20.21;68.64
82035;BME280;71599;49.892;18.914;2023-08-17T04:59:59;99062.63;;;20.35;67.04
82035;BME280;71599;49.892;18.914;2023-08-17T05:05:02;99061.72;;;20.42;66.73
82035;BME280;71599;49.892;18.914;2023-08-17T05:10:05;99063.25;;;20.46;66.75
82035;BME280;71599;49.892;18.914;2023-08-17T05:15:07;99073.75;;;20.62;66.58
82035;BME280;71599;49.892;18.914;2023-08-17T05:20:09;99075.44;;;21.06;65.43
82035;BME280;71599;49.892;18.914;2023-08-17T05:25:11;99063.53;;;22.47;62.31
82035;BME280;71599;49.892;18.914;2023-08-17T05:30:12;99060.00;;;24.14;57.52
82035;BME280;71599;49.892;18.914;2023-08-17T05:35:13;99056.13;;;24.24;56.65
82035;BME280;71599;49.892;18.914;2023-08-17T05:40:16;99062.06;;;23.85;58.65
82035;BME280;71599;49.892;18.914;2023-08-17T05:45:17;99062.22;;;23.65;59.32
82035;BME280;71599;49.892;18.914;2023-08-17T05:50:18;99063.47;;;23.32;60.15
82035;BME280;71599;49.892;18.914;2023-08-17T05:55:20;99055.56;;;23.30;60.14
82035;BME280;71599;49.892;18.914;2023-08-17T06:00:22;99065.59;;;23.28;59.98
82035;BME280;71599;49.892;18.914;2023-08-17T06:05:23;99070.22;;;23.18;59.88
82035;BME280;71599;49.892;18.914;2023-08-17T06:10:25;99060.91;;;23.09;59.99
82035;BME280;71599;49.892;18.914;2023-08-17T06:15:26;99057.00;;;23.06;60.94
82035;BME280;71599;49.892;18.914;2023-08-17T06:20:27;99058.38;;;23.14;61.65
82035;BME280;71599;49.892;18.914;2023-08-17T06:25:30;99060.19;;;23.21;61.80
82035;BME280;71599;49.892;18.914;2023-08-17T06:30:31;99057.66;;;23.26;61.60
82035;BME280;71599;49.892;18.914;2023-08-17T06:35:32;99058.66;;;23.49;60.86
82035;BME280;71599;49.892;18.914;2023-08-17T06:40:34;99054.63;;;23.66;59.35
82035;BME280;71599;49.892;18.914;2023-08-17T06:45:35;99055.59;;;23.88;58.72
82035;BME280;71599;49.892;18.914;2023-08-17T06:50:36;99057.88;;;24.18;58.43
82035;BME280;71599;49.892;18.914;2023-08-17T06:55:39;99056.97;;;24.88;55.66
82035;BME280;71599;49.892;18.914;2023-08-17T07:00:40;99052.69;;;25.43;54.39
82035;BME280;71599;49.892;18.914;2023-08-17T07:05:42;99048.09;;;26.15;53.20
82035;BME280;71599;49.892;18.914;2023-08-17T07:10:44;99051.47;;;26.72;51.24
82035;BME280;71599;49.892;18.914;2023-08-17T07:15:45;99050.50;;;27.24;49.93
82035;BME280;71599;49.892;18.914;2023-08-17T07:20:46;99041.66;;;27.71;49.45
82035;BME280;71599;49.892;18.914;2023-08-17T07:25:49;99045.97;;;26.99;50.10
82035;BME280;71599;49.892;18.914;2023-08-17T07:30:50;99045.41;;;27.68;49.16
82035;BME280;71599;49.892;18.914;2023-08-17T07:35:50;99051.19;;;28.52;48.29
82035;BME280;71599;49.892;18.914;2023-08-17T07:40:54;99043.16;;;28.92;46.35
82035;BME280;71599;49.892;18.914;2023-08-17T07:45:56;99045.03;;;29.28;45.35
82035;BME280;71599;49.892;18.914;2023-08-17T07:50:57;99039.13;;;29.65;44.83
82035;BME280;71599;49.892;18.914;2023-08-17T07:55:59;99038.91;;;29.68;44.18
82035;BME280;71599;49.892;18.914;2023-08-17T08:01:00;99043.22;;;29.93;45.90
82035;BME280;71599;49.892;18.914;2023-08-17T08:06:02;99038.56;;;30.05;44.57
82035;BME280;71599;49.892;18.914;2023-08-17T08:11:04;99026.59;;;30.39;43.33
82035;BME280;71599;49.892;18.914;2023-08-17T08:16:05;99038.78;;;30.16;42.38
82035;BME280;71599;49.892;18.914;2023-08-17T08:21:07;99041.06;;;30.03;40.17
82035;BME280;71599;49.892;18.914;2023-08-17T08:26:09;99034.38;;;30.00;41.48
82035;BME280;71599;49.892;18.914;2023-08-17T08:31:10;99023.75;;;30.54;41.59
82035;BME280;71599;49.892;18.914;2023-08-17T08:36:11;99019.06;;;30.66;40.65
82035;BME280;71599;49.892;18.914;2023-08-17T08:41:14;99015.94;;;30.78;39.32
82035;BME280;71599;49.892;18.914;2023-08-17T08:46:17;99016.09;;;31.50;39.41
82035;BME280;71599;49.892;18.914;2023-08-17T08:51:25;99002.97;;;31.47;38.45
82035;BME280;71599;49.892;18.914;2023-08-17T08:56:31;99010.59;;;31.87;37.41
82035;BME280;71599;49.892;18.914;2023-08-17T09:01:33;98988.00;;;31.87;39.08
82035;BME280;71599;49.892;18.914;2023-08-17T09:06:34;98985.91;;;31.82;38.60
82035;BME280;71599;49.892;18.914;2023-08-17T09:11:37;98986.66;;;31.57;39.20
82035;BME280;71599;49.892;18.914;2023-08-17T09:16:38;98985.09;;;31.56;36.08
82035;BME280;71599;49.892;18.914;2023-08-17T09:21:39;98986.63;;;31.77;37.02
82035;BME280;71599;49.892;18.914;2023-08-17T09:26:42;98979.53;;;31.87;36.05
82035;BME280;71599;49.892;18.914;2023-08-17T09:31:43;98973.97;;;31.47;36.99
82035;BME280;71599;49.892;18.914;2023-08-17T09:36:45;98963.81;;;31.14;35.70
82035;BME280;71599;49.892;18.914;2023-08-17T09:41:48;98951.50;;;31.37;35.35
82035;BME280;71599;49.892;18.914;2023-08-17T09:46:49;98947.22;;;31.42;35.46
82035;BME280;71599;49.892;18.914;2023-08-17T09:51:50;98956.00;;;31.50;35.67
82035;BME280;71599;49.892;18.914;2023-08-17T09:56:53;98954.22;;;31.06;37.57
82035;BME280;71599;49.892;18.914;2023-08-17T10:01:55;98945.59;;;31.15;37.89
82035;BME280;71599;49.892;18.914;2023-08-17T10:07:00;98950.56;;;30.80;38.15
82035;BME280;71599;49.892;18.914;2023-08-17T10:12:10;98936.81;;;30.03;38.25
82035;BME280;71599;49.892;18.914;2023-08-17T10:17:15;98945.91;;;29.77;40.12
82035;BME280;71599;49.892;18.914;2023-08-17T10:22:23;98946.56;;;29.72;39.44
82035;BME280;71599;49.892;18.914;2023-08-17T10:27:29;98939.94;;;29.46;39.10
82035;BME280;71599;49.892;18.914;2023-08-17T10:32:30;98962.88;;;29.30;40.29
82035;BME280;71599;49.892;18.914;2023-08-17T10:37:32;98972.16;;;28.83;40.85
82035;BME280;71599;49.892;18.914;2023-08-17T10:42:35;98993.44;;;28.42;42.00
82035;BME280;71599;49.892;18.914;2023-08-17T10:47:36;98993.81;;;28.25;42.12
82035;BME280;71599;49.892;18.914;2023-08-17T10:52:37;98999.16;;;28.14;42.68
82035;BME280;71599;49.892;18.914;2023-08-17T10:57:41;99010.91;;;27.85;45.00
82035;BME280;71599;49.892;18.914;2023-08-17T11:02:48;99008.16;;;27.49;45.76
82035;BME280;71599;49.892;18.914;2023-08-17T11:07:52;99024.34;;;27.09;47.19
82035;BME280;71599;49.892;18.914;2023-08-17T11:12:55;99058.16;;;26.34;46.08
82035;BME280;71599;49.892;18.914;2023-08-17T11:17:56;99077.97;;;25.40;44.21
82035;BME280;71599;49.892;18.914;2023-08-17T11:22:58;99079.94;;;24.42;47.08
82035;BME280;71599;49.892;18.914;2023-08-17T11:28:00;99093.81;;;23.75;52.30
82035;BME280;71599;49.892;18.914;2023-08-17T11:33:02;99091.88;;;22.78;55.56
82035;BME280;71599;49.892;18.914;2023-08-17T11:38:03;99079.28;;;22.18;57.11
82035;BME280;71599;49.892;18.914;2023-08-17T11:43:06;99095.47;;;22.03;59.39
82035;BME280;71599;49.892;18.914;2023-08-17T11:48:07;99082.53;;;21.97;58.79
82035;BME280;71599;49.892;18.914;2023-08-17T11:53:08;99087.84;;;21.44;63.05
82035;BME280;71599;49.892;18.914;2023-08-17T11:58:11;99082.78;;;21.63;61.68
82035;BME280;71599;49.892;18.914;2023-08-17T12:03:15;99070.22;;;21.55;63.34
82035;BME280;71599;49.892;18.914;2023-08-17T12:08:17;99059.28;;;21.44;62.25
82035;BME280;71599;49.892;18.914;2023-08-17T12:13:19;99054.97;;;21.63;60.76
82035;BME280;71599;49.892;18.914;2023-08-17T12:18:22;99053.59;;;21.51;62.81
82035;BME280;71599;49.892;18.914;2023-08-17T12:23:23;99036.00;;;21.58;63.95
82035;BME280;71599;49.892;18.914;2023-08-17T12:28:25;99020.16;;;21.74;62.66
82035;BME280;71599;49.892;18.914;2023-08-17T12:33:26;99024.94;;;21.74;63.55
82035;BME280;71599;49.892;18.914;2023-08-17T12:38:27;99002.81;;;22.06;63.60
82035;BME280;71599;49.892;18.914;2023-08-17T12:43:29;99003.06;;;22.48;62.29
82035;BME280;71599;49.892;18.914;2023-08-17T12:48:30;99013.59;;;22.73;59.85
82035;BME280;71599;49.892;18.914;2023-08-17T12:53:31;99023.28;;;22.68;60.36
82035;BME280;71599;49.892;18.914;2023-08-17T12:58:34;99031.63;;;22.68;58.60
82035;BME280;71599;49.892;18.914;2023-08-17T13:03:35;99051.09;;;22.36;60.45
82035;BME280;71599;49.892;18.914;2023-08-17T13:08:36;99048.53;;;22.25;59.24
82035;BME280;71599;49.892;18.914;2023-08-17T13:13:38;99056.09;;;22.24;59.31
82035;BME280;71599;49.892;18.914;2023-08-17T13:18:39;99059.97;;;22.47;58.26
82035;BME280;71599;49.892;18.914;2023-08-17T13:23:40;99042.34;;;22.70;57.49
82035;BME280;71599;49.892;18.914;2023-08-17T13:28:42;99035.03;;;22.76;57.21
82035;BME280;71599;49.892;18.914;2023-08-17T13:33:43;99020.59;;;22.97;57.89
82035;BME280;71599;49.892;18.914;2023-08-17T13:38:45;99005.53;;;22.94;57.49
82035;BME280;71599;49.892;18.914;2023-08-17T13:43:47;98987.47;;;22.83;58.87
82035;BME280;71599;49.892;18.914;2023-08-17T13:48:49;98962.50;;;22.79;59.13
82035;BME280;71599;49.892;18.914;2023-08-17T13:53:50;98947.09;;;22.91;58.92
82035;BME280;71599;49.892;18.914;2023-08-17T13:58:52;98959.81;;;23.21;59.53
82035;BME280;71599;49.892;18.914;2023-08-17T14:03:53;98948.69;;;23.62;59.02
82035;BME280;71599;49.892;18.914;2023-08-17T14:08:54;98967.28;;;23.81;58.53
82035;BME280;71599;49.892;18.914;2023-08-17T14:13:57;98973.22;;;23.96;57.83
82035;BME280;71599;49.892;18.914;2023-08-17T14:18:58;98957.34;;;24.06;56.29
82035;BME280;71599;49.892;18.914;2023-08-17T14:23:59;98960.72;;;24.13;55.79
82035;BME280;71599;49.892;18.914;2023-08-17T14:29:01;98949.75;;;24.06;56.92
82035;BME280;71599;49.892;18.914;2023-08-17T14:34:02;98950.72;;;23.74;55.70
82035;BME280;71599;49.892;18.914;2023-08-17T14:39:04;98931.25;;;23.45;55.37
82035;BME280;71599;49.892;18.914;2023-08-17T14:44:06;98943.81;;;23.09;57.17
82035;BME280;71599;49.892;18.914;2023-08-17T14:49:08;98954.31;;;23.04;56.95
82035;BME280;71599;49.892;18.914;2023-08-17T14:54:09;98942.50;;;23.13;57.56
82035;BME280;71599;49.892;18.914;2023-08-17T14:59:11;98932.13;;;23.14;57.08
82035;BME280;71599;49.892;18.914;2023-08-17T15:04:12;98931.16;;;23.20;55.39
82035;BME280;71599;49.892;18.914;2023-08-17T15:09:13;98931.84;;;23.24;55.69
82035;BME280;71599;49.892;18.914;2023-08-17T15:14:16;98926.59;;;23.26;55.33
82035;BME280;71599;49.892;18.914;2023-08-17T15:19:17;98937.50;;;23.21;55.68
82035;BME280;71599;49.892;18.914;2023-08-17T15:24:18;98931.41;;;22.97;57.23
82035;BME280;71599;49.892;18.914;2023-08-17T15:29:21;98937.59;;;22.88;57.18
82035;BME280;71599;49.892;18.914;2023-08-17T15:34:22;98924.63;;;22.65;58.55
82035;BME280;71599;49.892;18.914;2023-08-17T15:39:23;98938.31;;;22.76;58.27
82035;BME280;71599;49.892;18.914;2023-08-17T15:44:25;98942.22;;;22.79;57.61
82035;BME280;71599;49.892;18.914;2023-08-17T15:49:26;98937.31;;;22.99;57.74
82035;BME280;71599;49.892;18.914;2023-08-17T15:54:27;98927.91;;;22.77;58.99
82035;BME280;71599;49.892;18.914;2023-08-17T15:59:30;98935.66;;;23.01;58.72
82035;BME280;71599;49.892;18.914;2023-08-17T16:04:31;98935.72;;;23.14;57.53
82035;BME280;71599;49.892;18.914;2023-08-17T16:09:32;98934.28;;;23.22;57.99
82035;BME280;71599;49.892;18.914;2023-08-17T16:14:34;98947.03;;;23.23;58.52
82035;BME280;71599;49.892;18.914;2023-08-17T16:19:35;98942.91;;;23.28;59.07
82035;BME280;71599;49.892;18.914;2023-08-17T16:24:36;98941.75;;;23.25;59.64
82035;BME280;71599;49.892;18.914;2023-08-17T16:29:38;98941.88;;;23.22;60.95
82035;BME280;71599;49.892;18.914;2023-08-17T16:34:39;98938.13;;;22.99;61.33
82035;BME280;71599;49.892;18.914;2023-08-17T16:39:40;98931.75;;;22.99;59.44
82035;BME280;71599;49.892;18.914;2023-08-17T16:44:42;98932.28;;;22.94;59.25
82035;BME280;71599;49.892;18.914;2023-08-17T16:49:43;98953.97;;;22.86;59.71
82035;BME280;71599;49.892;18.914;2023-08-17T16:54:44;98951.09;;;22.90;61.42
82035;BME280;71599;49.892;18.914;2023-08-17T16:59:47;98944.66;;;22.93;59.62
82035;BME280;71599;49.892;18.914;2023-08-17T17:04:48;98938.03;;;22.87;59.69
82035;BME280;71599;49.892;18.914;2023-08-17T17:09:49;98928.97;;;22.83;59.98
82035;BME280;71599;49.892;18.914;2023-08-17T17:14:51;98913.47;;;22.82;59.75
82035;BME280;71599;49.892;18.914;2023-08-17T17:19:52;98910.72;;;22.65;61.21
82035;BME280;71599;49.892;18.914;2023-08-17T17:24:54;98905.06;;;22.69;61.07
82035;BME280;71599;49.892;18.914;2023-08-17T17:29:57;98898.44;;;22.47;61.02
82035;BME280;71599;49.892;18.914;2023-08-17T17:34:58;98901.25;;;22.47;61.50
82035;BME280;71599;49.892;18.914;2023-08-17T17:39:59;98898.56;;;22.43;62.25
82035;BME280;71599;49.892;18.914;2023-08-17T17:45:01;98898.56;;;22.27;61.74
82035;BME280;71599;49.892;18.914;2023-08-17T17:50:04;98901.56;;;22.16;61.87
82035;BME280;71599;49.892;18.914;2023-08-17T17:55:06;98901.41;;;22.07;61.67
82035;BME280;71599;49.892;18.914;2023-08-17T18:00:09;98897.72;;;21.94;63.80
82035;BME280;71599;49.892;18.914;2023-08-17T18:05:11;98898.09;;;21.40;65.97
82035;BME280;71599;49.892;18.914;2023-08-17T18:10:12;98892.69;;;21.33;65.29
82035;BME280;71599;49.892;18.914;2023-08-17T18:15:14;98882.22;;;21.41;64.77
82035;BME280;71599;49.892;18.914;2023-08-17T18:20:15;98892.44;;;21.44;64.11
82035;BME280;71599;49.892;18.914;2023-08-17T18:25:16;98903.81;;;21.33;65.17
82035;BME280;71599;49.892;18.914;2023-08-17T18:30:18;98909.09;;;21.28;65.26
82035;BME280;71599;49.892;18.914;2023-08-17T18:35:19;98909.50;;;21.06;65.03
82035;BME280;71599;49.892;18.914;2023-08-17T18:40:20;98903.94;;;20.87;64.59
82035;BME280;71599;49.892;18.914;2023-08-17T18:45:23;98913.75;;;20.91;65.40
82035;BME280;71599;49.892;18.914;2023-08-17T18:50:24;98897.44;;;20.93;64.33
82035;BME280;71599;49.892;18.914;2023-08-17T18:55:25;98918.69;;;21.03;64.57
82035;BME280;71599;49.892;18.914;2023-08-17T19:00:28;98912.56;;;20.92;65.36
82035;BME280;71599;49.892;18.914;2023-08-17T19:05:29;98909.66;;;20.76;66.39
82035;BME280;71599;49.892;18.914;2023-08-17T19:10:30;98918.59;;;20.64;67.32
82035;BME280;71599;49.892;18.914;2023-08-17T19:15:32;98914.50;;;20.72;66.99
82035;BME280;71599;49.892;18.914;2023-08-17T19:20:33;98920.66;;;20.83;66.31
82035;BME280;71599;49.892;18.914;2023-08-17T19:25:34;98905.16;;;20.86;66.38
82035;BME280;71599;49.892;18.914;2023-08-17T19:30:37;98906.75;;;20.83;67.52
82035;BME280;71599;49.892;18.914;2023-08-17T19:35:38;98904.97;;;20.73;67.51
82035;BME280;71599;49.892;18.914;2023-08-17T19:40:39;98904.69;;;20.64;67.94
82035;BME280;71599;49.892;18.914;2023-08-17T19:45:41;98910.69;;;20.62;67.04
82035;BME280;71599;49.892;18.914;2023-08-17T19:50:42;98916.72;;;20.57;67.04
82035;BME280;71599;49.892;18.914;2023-08-17T19:55:43;98920.13;;;20.69;66.71
82035;BME280;71599;49.892;18.914;2023-08-17T20:00:46;98917.56;;;20.54;67.78
82035;BME280;71599;49.892;18.914;2023-08-17T20:05:47;98928.59;;;20.35;68.04
82035;BME280;71599;49.892;18.914;2023-08-17T20:10:48;98933.06;;;20.29;69.12
82035;BME280;71599;49.892;18.914;2023-08-17T20:15:54;98936.25;;;20.27;69.15
82035;BME280;71599;49.892;18.914;2023-08-17T20:20:55;98923.34;;;20.40;69.97
82035;BME280;71599;49.892;18.914;2023-08-17T20:25:56;98949.72;;;20.29;67.70
82035;BME280;71599;49.892;18.914;2023-08-17T20:30:58;98951.09;;;20.17;68.21
82035;BME280;71599;49.892;18.914;2023-08-17T20:35:59;98955.53;;;20.11;67.95
82035;BME280;71599;49.892;18.914;2023-08-17T20:41:02;98962.66;;;20.12;68.27
82035;BME280;71599;49.892;18.914;2023-08-17T20:46:04;98965.66;;;19.94;69.28
82035;BME280;71599;49.892;18.914;2023-08-17T20:51:06;98965.47;;;19.78;69.05
82035;BME280;71599;49.892;18.914;2023-08-17T20:56:07;98952.88;;;19.73;69.53
82035;BME280;71599;49.892;18.914;2023-08-17T21:01:09;98969.78;;;19.82;69.52
82035;BME280;71599;49.892;18.914;2023-08-17T21:06:10;98968.13;;;19.89;68.98
82035;BME280;71599;49.892;18.914;2023-08-17T21:11:11;98983.41;;;19.70;69.63
82035;BME280;71599;49.892;18.914;2023-08-17T21:16:13;98976.25;;;19.72;69.43
82035;BME280;71599;49.892;18.914;2023-08-17T21:21:14;98978.22;;;19.72;69.24
82035;BME280;71599;49.892;18.914;2023-08-17T21:26:15;98977.56;;;19.64;69.24
82035;BME280;71599;49.892;18.914;2023-08-17T21:31:18;98982.00;;;19.58;69.43
82035;BME280;71599;49.892;18.914;2023-08-17T21:36:19;98980.72;;;19.63;69.35
82035;BME280;71599;49.892;18.914;2023-08-17T21:41:20;98994.53;;;19.66;69.08
82035;BME280;71599;49.892;18.914;2023-08-17T21:46:22;98990.56;;;19.67;68.98
82035;BME280;71599;49.892;18.914;2023-08-17T21:51:52;98993.03;;;19.62;69.06
82035;BME280;71599;49.892;18.914;2023-08-17T21:56:55;98981.66;;;19.53;69.01
82035;BME280;71599;49.892;18.914;2023-08-17T22:01:57;98993.63;;;19.46;69.20
82035;BME280;71599;49.892;18.914;2023-08-17T22:07:00;98983.13;;;19.27;69.54
82035;BME280;71599;49.892;18.914;2023-08-17T22:12:02;98982.81;;;19.21;70.19
82035;BME280;71599;49.892;18.914;2023-08-17T22:17:04;98982.47;;;19.12;70.21
82035;BME280;71599;49.892;18.914;2023-08-17T22:22:05;98972.56;;;19.11;70.14
82035;BME280;71599;49.892;18.914;2023-08-17T22:27:06;98969.81;;;19.11;69.81
82035;BME280;71599;49.892;18.914;2023-08-17T22:32:09;98967.94;;;19.01;70.32
82035;BME280;71599;49.892;18.914;2023-08-17T22:37:10;98962.06;;;18.95;69.91
82035;BME280;71599;49.892;18.914;2023-08-17T22:42:11;98971.63;;;18.87;69.92
82035;BME280;71599;49.892;18.914;2023-08-17T22:47:14;98967.38;;;18.76;70.51
82035;BME280;71599;49.892;18.914;2023-08-17T22:52:15;98957.94;;;18.70;69.96
82035;BME280;71599;49.892;18.914;2023-08-17T22:57:16;98962.75;;;18.62;70.45
82035;BME280;71599;49.892;18.914;2023-08-17T23:02:18;98960.09;;;18.51;71.14
82035;BME280;71599;49.892;18.914;2023-08-17T23:07:19;98960.13;;;18.48;70.47
82035;BME280;71599;49.892;18.914;2023-08-17T23:12:20;98959.34;;;18.44;70.42
82035;BME280;71599;49.892;18.914;2023-08-17T23:17:23;98966.50;;;18.38;70.82
82035;BME280;71599;49.892;18.914;2023-08-17T23:22:24;98959.44;;;18.30;71.24
82035;BME280;71599;49.892;18.914;2023-08-17T23:27:25;98956.34;;;18.24;71.28
82035;BME280;71599;49.892;18.914;2023-08-17T23:32:27;98949.66;;;18.14;71.32
82035;BME280;71599;49.892;18.914;2023-08-17T23:37:28;98960.34;;;18.16;71.31
82035;BME280;71599;49.892;18.914;2023-08-17T23:42:29;98949.69;;;18.11;71.20
82035;BME280;71599;49.892;18.914;2023-08-17T23:47:31;98943.81;;;18.02;71.74
82035;BME280;71599;49.892;18.914;2023-08-17T23:52:32;98954.88;;;18.02;71.93
82035;BME280;71599;49.892;18.914;2023-08-17T23:57:33;98947.09;;;17.82;72.61
